This is the latest recevied weather packets stored in our database for station/object EA4BCR. If no packets are shown the sender has not sent any weather packets the latest 10 day(s).
| Time | Temp. | Humidity | Pressure | Rain* | Wind** | Luminosity | Snow |
|---|---|---|---|---|---|---|---|
| 1788154818 | 14.44° C | 50% | 1020 hPa | - | - | - | - |
| 1788154219 | 14.44° C | 49% | 1019.9 hPa | - | - | - | - |
| 1788153618 | 14.44° C | 49% | 1019.8 hPa | - | - | - | - |
| 1788153018 | 14.44° C | 48% | 1019.6 hPa | - | - | - | - |
| 1788152418 | 15° C | 48% | 1019.4 hPa | - | - | - | - |
| 1788151818 | 15° C | 48% | 1019.4 hPa | - | - | - | - |
| 1788151219 | 15° C | 48% | 1019.6 hPa | - | - | - | - |
| 1788150619 | 15° C | 48% | 1019.6 hPa | - | - | - | - |
| 1788150018 | 15° C | 49% | 1019.5 hPa | - | - | - | - |
| 1788149418 | 15° C | 46% | 1019.4 hPa | - | - | - | - |
| 1788148818 | 15.56° C | 46% | 1019.3 hPa | - | - | - | - |
| 1788148218 | 15.56° C | 46% | 1019.2 hPa | - | - | - | - |
| 1788147618 | 15.56° C | 45% | 1019.1 hPa | - | - | - | - |
| 1788147018 | 16.11° C | 45% | 1019 hPa | - | - | - | - |
| 1788146418 | 16.11° C | 44% | 1019.1 hPa | - | - | - | - |
| 1788145818 | 15.56° C | 44% | 1019.1 hPa | - | - | - | - |
| 1788145218 | 15.56° C | 46% | 1019.2 hPa | - | - | - | - |
| 1788144619 | 16.11° C | 44% | 1019 hPa | - | - | - | - |
| 1788144018 | 16.11° C | 43% | 1018.9 hPa | - | - | - | - |
| 1788143418 | 16.67° C | 42% | 1018.8 hPa | - | - | - | - |
| 1788142818 | 16.67° C | 42% | 1018.8 hPa | - | - | - | - |
| 1788142218 | 16.11° C | 43% | 1018.9 hPa | - | - | - | - |
| 1788141618 | 16.11° C | 43% | 1018.9 hPa | - | - | - | - |
| 1788141018 | 16.67° C | 42% | 1018.8 hPa | - | - | - | - |
| 1788140418 | 17.22° C | 41% | 1018.6 hPa | - | - | - | - |
* Rain since midnight (hover to see other rain measurements)
** Current wind speed in m/s (hover to see current wind gust speed)